AirNav   Pilot Hours Calculator
 
 1757 users online  

OH06 Henry County Hospital Heliport
Napoleon, Ohio, USA

GOING TO NAPOLEON?


FAA INFORMATION EFFECTIVE 02 JANUARY 2020

Location

FAA Identifier: OH06
Lat/Long: 41-24-43.1200N 084-05-15.2900W
41-24.718667N 084-05.254833W
41.4119778,-84.0875806
(estimated)
Elevation: 666 ft. / 203 m (estimated)
Variation: 06W (2010)
From city: 3 miles NE of NAPOLEON, OH
Time zone: UTC -5 (UTC -4 during Daylight Saving Time)
Zip code: 43545

Heliport Operations

Heliport use: Private use. Permission required prior to landing
Activation date: 06/2015
Control tower: no
ARTCC: CLEVELAND CENTER
FSS: CLEVELAND FLIGHT SERVICE STATION
Attendance: UNATNDD
Wind indicator: lighted
Segmented circle: no

Heliport Communications

WX AWOS-3P at USE (12 nm N): 127.375 (419-335-0775)
WX ASOS at DFI (16 nm W): 121.425 (419-658-2301)
WX ASOS at TOL (16 nm NE): PHONE 419-865-6924

Nearby radio navigation aids

VOR radial/distance  VOR name  Freq  Var
VWVr265/20.3WATERVILLE VOR/DME113.1002W
FBCr333/31.2FLAG CITY VORTAC108.2002W

 
NDB name  Hdg/Dist  Freq  Var  ID
TOPHR226/11.321905WTO - ---
ADRIAN187/27.527806WADG .- -.. --.
TECUMSEH200/38.423906WTCU - -.-. ..-

Heliport Services

Runway Information

Helipad H1

Dimensions: 50 x 50 ft. / 15 x 15 m
Surface: concrete
Latitude: 41-24.718667N
Longitude: 084-05.254833W
Elevation: 666.0 ft.
Traffic pattern: leftleft

Heliport Ownership and Management from official FAA records

Ownership: Privately-owned
Owner: HENRY COUNTY HOSPITAL
1600 EAST RIVERVIEW AVENUE
NAPOLEON, OH 43545
Phone 419-592-4015
Manager: MIKE CONRAD
LIFE FLIGHT ST. VINCENT
TOLEDO, OH 43608
Phone 419-251-4588

Additional Remarks

FOR CD CTC TOLEDO APCH AT 419-865-1495

Instrument Procedures

There are no published instrument procedures at OH06.

Some nearby airports with instrument procedures:

7W5 - Henry County Airport (2 nm S)
KUSE - Fulton County Airport (12 nm N)
KDFI - Defiance Memorial Airport (16 nm W)
KTOL - Toledo Express Airport (16 nm NE)
0G6 - Williams County Airport (19 nm W)
 
Loc | Ops | Rwys | IFR | FBO | Links
Com | Nav | Svcs | Stats | Notes
Aerial photo
No photo
 
Airport distance calculator
Flying to Henry County Hospital Heliport? Find the distance to fly.

From to OH06

Sunrise and sunset
Times for 23-Jan-2020
 Local
(UTC-5)
 Zulu
(UTC)
Morning civil twilight07:2712:27
Sunrise07:5712:57
Sunset17:4022:40
Evening civil twilight18:1023:10

Current date and time
Zulu (UTC)  23-Jan-2020 20:48:50
Local (UTC-5)  23-Jan-2020 15:48:50
 
METAR
KUSE 
12nm N 
232035Z AUTO 12005KT 10SM FEW055 04/M01 A3013 RMK AO2
KDFI 
16nm W 
231953Z AUTO 00000KT 10SM BKN080 OVC095 06/M04 A3013 RMK AO2 SLP208 T00611044
KTOL 
17nm NE 
231952Z VRB03KT 10SM FEW075 BKN100 05/M05 A3015 RMK AO2 SLP214 T00501050
KOWX 
23nm S 
232039Z AUTO 16008KT 10SM BKN095 BKN120 03/M06 A3015 RMK AO1
TAF
KTOL 
17nm NE 
231723Z 2318/2418 13005KT P6SM SCT050 OVC150 FM240700 10007KT 5SM -FZRASN SCT030 OVC050 FM241200 08009KT 3SM -FZRASN SCT005 OVC025 WS020/14035KT FM241400 09009KT 6SM -RA SCT005 OVC020
NOTAMs
Click for the latest NOTAMs
NOTAMs are issued by the DoD/FAA and will open in a separate window not controlled by AirNav.

 

 
 

Would you like to see your business listed on this page?

 If your business provides an interesting product or service to pilots, flight crews, aircraft, or users of the Henry County Hospital Heliport, you should consider listing it here.  To start the listing process, click on the button below
 
Add a business
 

Other Pages about Henry County Hospital Heliport

Update a link
 
Copyright © AirNav, LLC. All rights reserved. Privacy Policy  Contact